»·PEaware :: N26DC KSAN-KLAS

N26DC :: KSAN-KLAS

FLIGHT INFORMATION

Flight Status: Arrived
Operator: Privately registered:
United States
More flights under this callsign
Pilot: Dan C. (28231)
Aircraft: BEECH AIRCRAFT PREMIER
(PRM1)
More flights by this aircraft type
Origin: KSAN San Diego Intl-Lindbergh
United States
Destination: KLAS McCarran Intl
United States
More flights between these airports :: More routes between these airports
Route: PADRZ2 CHKNN SEBBY YELAH MISEN KEPEC6
File this flight plan on PilotEdge
Remarks:
Altitude:
(Current/Filed)
23,000ft
Speed:
(Current/Filed)
280kts
Departed: 05-Jul-20 03:58 PM
Arrived: 05-Jul-20 05:06 PM
Distance/Time
Traveled:
226nm/1:08
Distance/Time
To Go:
Arrived

Flight Plot

Page will automatically refresh every two minutes.

Flight plan parsing failed; only flown route is shown


Map Options




Map Legend


Flown Route
Filed Route
Departure Airport
Arrival Airport
Navaid (VOR, NDB)
Fix

Horizontal Profiles

Position Reports

Time Latitude Longitude Heading Altitude Ground
Speed
05-Jul-20 15:40 32.732395 -117.176426 194 24ft 0kts
05-Jul-20 15:41 32.732395 -117.176426 194 24ft 0kts
05-Jul-20 15:42 32.732395 -117.176426 194 24ft 0kts
05-Jul-20 15:43 32.732395 -117.176426 194 24ft 0kts
05-Jul-20 15:44 32.732395 -117.176426 194 24ft 0kts
05-Jul-20 15:45 32.732395 -117.176426 194 24ft 0kts
05-Jul-20 15:46 32.732395 -117.176426 194 24ft 0kts
05-Jul-20 15:47 32.732395 -117.176426 194 24ft 0kts
05-Jul-20 15:48 32.732395 -117.176426 194 24ft 0kts
05-Jul-20 15:49 32.732373 -117.176432 193 24ft 0kts
05-Jul-20 15:50 32.732395 -117.176426 194 24ft 0kts
05-Jul-20 15:51 32.732395 -117.176426 194 24ft 0kts
05-Jul-20 15:52 32.732395 -117.176426 194 24ft 0kts
05-Jul-20 15:53 32.732395 -117.176426 194 24ft 0kts
05-Jul-20 15:54 32.731977 -117.176354 149 24ft 7kts
05-Jul-20 15:55 32.731081 -117.175409 167 24ft 0kts
05-Jul-20 15:56 32.731062 -117.175403 164 24ft 3kts
05-Jul-20 15:57 32.730559 -117.177383 290 24ft 60kts
05-Jul-20 16:04 32.732395 -117.176426 194 24ft 0kts
05-Jul-20 16:05 32.732395 -117.176426 194 24ft 0kts
05-Jul-20 16:06 32.732395 -117.176426 194 24ft 0kts
05-Jul-20 16:07 32.732395 -117.176426 194 24ft 0kts
05-Jul-20 16:08 32.731835 -117.176423 167 24ft 1kts
05-Jul-20 16:09 32.730989 -117.175477 143 24ft 0kts
05-Jul-20 16:10 32.730989 -117.175477 143 24ft 0kts
05-Jul-20 16:11 32.730626 -117.177594 285 24ft 68kts
05-Jul-20 16:12 32.749404 -117.221961 305 2490ft 172kts
05-Jul-20 16:13 32.775473 -117.273919 302 5547ft 221kts
05-Jul-20 16:14 32.808939 -117.334483 308 7740ft 224kts
05-Jul-20 16:15 32.845223 -117.389414 307 10304ft 212kts
05-Jul-20 16:16 32.888204 -117.455981 307 11374ft 287kts
05-Jul-20 16:17 32.939439 -117.535689 307 12294ft 313kts
05-Jul-20 16:17 32.983593 -117.604581 307 13350ft 312kts
05-Jul-20 16:19 33.044258 -117.699366 307 15121ft 312kts
05-Jul-20 16:20 33.107135 -117.773837 318 16335ft 330kts
05-Jul-20 16:20 33.166171 -117.826729 348 18843ft 314kts
05-Jul-20 16:22 33.263105 -117.840594 2 21972ft 307kts
05-Jul-20 16:22 33.336612 -117.833305 3 22981ft 336kts
05-Jul-20 16:23 33.437617 -117.825107 2 22986ft 389kts
05-Jul-20 16:24 33.550288 -117.816768 2 22979ft 419kts
05-Jul-20 16:25 33.668702 -117.808045 2 22973ft 429kts
05-Jul-20 16:26 33.788355 -117.799215 2 22964ft 430kts
05-Jul-20 16:27 33.907524 -117.790399 2 22955ft 428kts
05-Jul-20 16:28 34.025802 -117.781356 5 22972ft 427kts
05-Jul-20 16:29 34.129905 -117.717141 45 22992ft 433kts
05-Jul-20 16:30 34.207625 -117.605325 49 22985ft 435kts
05-Jul-20 16:31 34.284271 -117.491890 49 22987ft 435kts
05-Jul-20 16:32 34.360833 -117.379052 49 22983ft 435kts
05-Jul-20 16:33 34.437787 -117.265424 49 22992ft 435kts
05-Jul-20 16:34 34.514151 -117.152314 49 23051ft 434kts
05-Jul-20 16:35 34.590589 -117.038731 49 23058ft 434kts
05-Jul-20 16:36 34.666972 -116.924853 49 23021ft 436kts
05-Jul-20 16:37 34.743419 -116.810515 49 22955ft 437kts
05-Jul-20 16:38 34.819800 -116.695954 49 22933ft 436kts
05-Jul-20 16:39 34.906475 -116.594034 37 22935ft 434kts
05-Jul-20 16:40 35.000673 -116.502281 37 22947ft 433kts
05-Jul-20 16:41 35.094219 -116.409825 40 22954ft 434kts
05-Jul-20 16:42 35.179901 -116.306258 44 22959ft 434kts
05-Jul-20 16:43 35.262194 -116.203247 44 22958ft 421kts
05-Jul-20 16:44 35.340567 -116.104477 44 20799ft 379kts
05-Jul-20 16:45 35.413333 -116.012751 44 18396ft 374kts
05-Jul-20 16:46 35.483569 -115.923861 44 15979ft 338kts
05-Jul-20 16:47 35.547100 -115.843271 44 13569ft 327kts
05-Jul-20 16:48 35.608565 -115.765091 44 12978ft 314kts
05-Jul-20 16:49 35.669470 -115.687445 44 13032ft 316kts
05-Jul-20 16:50 35.730275 -115.609734 44 13029ft 315kts
05-Jul-20 16:51 35.808173 -115.572558 1 13031ft 308kts
05-Jul-20 16:52 35.893816 -115.567733 0 13033ft 308kts
05-Jul-20 16:53 35.972953 -115.533405 43 12986ft 312kts
05-Jul-20 16:54 36.009330 -115.444651 67 12135ft 270kts
05-Jul-20 16:55 36.029153 -115.348974 93 10841ft 294kts
05-Jul-20 16:56 36.022124 -115.249534 94 9830ft 290kts
05-Jul-20 16:57 36.015018 -115.151266 94 8624ft 281kts
05-Jul-20 16:58 36.009890 -115.062502 78 8008ft 256kts
05-Jul-20 16:59 36.065064 -115.016989 21 7700ft 254kts
05-Jul-20 17:00 36.130861 -115.010368 343 6503ft 233kts
05-Jul-20 17:01 36.166829 -115.058741 292 5752ft 181kts
05-Jul-20 17:02 36.154308 -115.112210 244 4457ft 162kts
05-Jul-20 17:03 36.123200 -115.142756 202 2769ft 134kts
05-Jul-20 17:04 36.092099 -115.160470 199 2188ft 57kts
05-Jul-20 17:05 36.089265 -115.163202 289 2188ft 0kts
05-Jul-20 17:06 36.090145 -115.164321 21 2188ft 5kts
05-Jul-20 17:07 36.092005 -115.163199 18 2188ft 9kts
05-Jul-20 17:08 36.096041 -115.161024 26 2188ft 20kts
05-Jul-20 17:09 36.098126 -115.160631 359 2188ft 0kts
05-Jul-20 17:10 36.098988 -115.160843 34 2188ft 2kts
05-Jul-20 17:11 36.098991 -115.160839 38 2188ft 0kts
05-Jul-20 17:12 36.098991 -115.160839 38 2188ft 0kts
05-Jul-20 17:13 36.098991 -115.160839 38 2188ft 0kts
05-Jul-20 17:14 36.098991 -115.160839 38 2188ft 0kts
05-Jul-20 17:15 36.098991 -115.160839 38 2188ft 0kts
05-Jul-20 17:16 36.098991 -115.160839 38 2188ft 0kts
05-Jul-20 17:17 36.098991 -115.160839 38 2188ft 0kts
05-Jul-20 17:18 36.098991 -115.160839 38 2188ft 0kts
05-Jul-20 17:19 36.098991 -115.160839 38 2188ft 0kts

Navigation Log

Ident Type
Flight plan parsing failed, navigation log unavailable